Time;durP1;ratioP1;P1;durP2;ratioP2;P2;SDS_P1;SDS_P2;PMS_P1;PMS_P2;Temp;Humidity;BMP_temperature;BMP_pressure;BME280_temperature;BME280_humidity;BME280_pressure;Samples;Min_cycle;Max_cycle;Signal;HPM_P1;HPM_P2
2021/06/15 00:00:01;;;;;;;8.78;4.92;;;;;;;15.47;66.60;100727.64;1701421;82;25504;-86
2021/06/15 00:02:27;;;;;;;10.45;5.65;;;;;;;15.43;66.63;100721.10;1701523;82;25630;-85
2021/06/15 00:04:52;;;;;;;11.63;5.62;;;;;;;15.42;66.82;100723.44;1701412;83;31538;-84
2021/06/15 00:07:18;;;;;;;10.98;6.08;;;;;;;15.40;66.84;100720.16;1701509;82;35329;-86
2021/06/15 00:09:44;;;;;;;8.28;5.80;;;;;;;15.38;66.86;100716.89;1701330;83;32774;-85
2021/06/15 00:12:10;;;;;;;10.15;5.80;;;;;;;15.35;66.90;100713.83;1701529;82;25431;-86
2021/06/15 00:14:37;;;;;;;7.92;5.40;;;;;;;15.28;67.01;100716.41;1701512;82;25380;-86
2021/06/15 00:17:05;;;;;;;11.22;5.78;;;;;;;15.21;67.11;100718.14;1700464;82;25460;-86
2021/06/15 00:19:31;;;;;;;9.63;5.47;;;;;;;15.20;67.30;100709.44;1699906;84;25489;-86
2021/06/15 00:21:57;;;;;;;9.75;5.12;;;;;;;15.18;67.31;100711.44;1699928;84;32141;-87
2021/06/15 00:24:23;;;;;;;9.90;5.55;;;;;;;15.16;67.23;100715.25;1700824;83;25502;-87
2021/06/15 00:26:49;;;;;;;11.60;5.70;;;;;;;15.13;67.34;100716.44;1701321;84;25631;-87
2021/06/15 00:29:15;;;;;;;12.95;6.65;;;;;;;15.12;67.48;100714.01;1701118;84;31006;-85
2021/06/15 00:31:41;;;;;;;12.85;6.37;;;;;;;15.08;67.40;100710.91;1701235;84;34511;-85
2021/06/15 00:34:06;;;;;;;10.85;6.92;;;;;;;15.05;67.47;100701.56;1701212;84;32440;-85
2021/06/15 00:36:32;;;;;;;9.18;6.28;;;;;;;15.00;67.52;100703.94;1701168;84;25962;-84
2021/06/15 00:38:58;;;;;;;9.50;6.33;;;;;;;14.98;67.67;100703.33;1701199;83;32885;-85
2021/06/15 00:41:24;;;;;;;11.25;6.42;;;;;;;14.96;67.46;100709.27;1682307;84;31121;-86
2021/06/15 00:43:50;;;;;;;8.88;6.12;;;;;;;14.93;67.54;100705.70;1701148;84;25665;-86
2021/06/15 00:46:16;;;;;;;10.65;6.60;;;;;;;14.91;67.54;100705.56;1700923;82;32192;-86
2021/06/15 00:48:44;;;;;;;11.00;7.08;;;;;;;14.87;67.48;100712.52;1701470;83;25459;-85
2021/06/15 00:51:11;;;;;;;11.35;6.85;;;;;;;14.79;67.73;100711.30;1700843;82;25710;-85
2021/06/15 00:53:37;;;;;;;13.40;6.55;;;;;;;14.74;68.03;100708.41;1701405;83;25158;-85
2021/06/15 00:56:05;;;;;;;12.43;7.20;;;;;;;14.70;68.09;100711.58;1682266;83;25234;-85
2021/06/15 00:58:32;;;;;;;13.30;6.75;;;;;;;14.69;68.21;100700.23;1700804;84;25115;-86
2021/06/15 01:00:59;;;;;;;11.40;7.37;;;;;;;14.69;68.15;100711.27;1683506;83;26992;-86
2021/06/15 01:03:27;;;;;;;9.65;6.90;;;;;;;14.67;68.25;100702.73;1701212;83;25602;-86
2021/06/15 01:05:55;;;;;;;10.65;7.15;;;;;;;14.62;68.34;100704.12;1701262;84;25432;-85
2021/06/15 01:09:00;;;;;;;10.60;7.42;;;;;;;14.50;68.19;100701.59;1706538;84;25118;-85
2021/06/15 01:12:04;;;;;;;11.12;6.97;;;;;;;14.42;68.34;100700.36;1701065;84;25615;-86
2021/06/15 01:14:48;;;;;;;10.72;6.80;;;;;;;14.35;68.46;100693.71;1700142;84;25735;-86
2021/06/15 01:17:53;;;;;;;10.55;7.00;;;;;;;14.35;68.72;100695.02;1700787;83;25605;-87
2021/06/15 01:20:30;;;;;;;11.45;6.75;;;;;;;14.33;68.87;100690.94;1700944;82;25583;-87
2021/06/15 01:23:46;;;;;;;10.90;7.45;;;;;;;14.28;69.02;100695.92;1700951;82;25142;-87
2021/06/15 01:26:57;;;;;;;11.22;6.92;;;;;;;14.19;69.03;100684.18;1679028;84;25457;-87
2021/06/15 01:29:34;;;;;;;10.25;6.97;;;;;;;14.20;69.07;100684.48;1672435;83;25671;-85
2021/06/15 01:32:06;;;;;;;10.45;7.55;;;;;;;14.20;69.22;100688.43;1679779;84;25747;-86
2021/06/15 01:34:38;;;;;;;11.93;7.40;;;;;;;14.17;69.14;100684.84;1680185;84;25240;-85
2021/06/15 01:37:13;;;;;;;11.65;6.90;;;;;;;14.10;69.23;100681.80;1679531;84;25664;-86
2021/06/15 01:39:50;;;;;;;10.88;7.67;;;;;;;14.04;69.19;100683.34;1679532;84;25751;-85
2021/06/15 01:42:33;;;;;;;12.07;7.47;;;;;;;13.97;69.35;100681.94;1679456;85;25624;-85
2021/06/15 01:45:15;;;;;;;13.45;7.33;;;;;;;13.94;69.58;100686.24;1680171;84;25272;-85
2021/06/15 01:47:59;;;;;;;12.07;7.03;;;;;;;13.86;69.42;100689.42;1680220;85;25168;-87
2021/06/15 01:50:31;;;;;;;14.68;7.87;;;;;;;13.80;69.65;100688.32;1679370;84;25289;-86
2021/06/15 01:52:55;;;;;;;11.17;7.47;;;;;;;13.74;69.67;100692.98;1679135;84;25699;-86
2021/06/15 01:55:24;;;;;;;12.53;7.35;;;;;;;13.65;69.88;100697.49;1679390;84;25745;-87
2021/06/15 01:57:54;;;;;;;15.78;7.75;;;;;;;13.59;69.97;100701.34;1678959;84;25263;-87
2021/06/15 02:00:22;;;;;;;9.90;6.42;;;;;;;13.59;70.30;100698.70;1665206;82;25489;-86
2021/06/15 02:02:51;;;;;;;12.13;7.63;;;;;;;13.62;70.33;100707.05;1706498;82;25439;-87
2021/06/15 02:05:39;;;;;;;12.35;7.45;;;;;;;13.60;70.10;100706.89;1699634;82;25150;-86
2021/06/15 02:08:11;;;;;;;9.88;7.33;;;;;;;13.54;70.17;100715.80;1700740;82;25639;-87
2021/06/15 02:10:39;;;;;;;10.90;7.00;;;;;;;13.47;70.08;100708.28;1700710;84;25428;-87
2021/06/15 02:13:14;;;;;;;10.25;7.15;;;;;;;13.40;70.47;100713.94;1638463;82;25459;-86
2021/06/15 02:15:56;;;;;;;11.45;7.45;;;;;;;13.43;70.78;100704.39;1648718;82;25531;-87
2021/06/15 02:18:37;;;;;;;12.23;7.65;;;;;;;13.43;70.86;100708.83;1628026;87;25771;-87
2021/06/15 02:21:10;;;;;;;13.65;6.67;;;;;;;13.42;71.06;100707.17;1627230;88;25898;-86
2021/06/15 02:23:40;;;;;;;12.03;6.97;;;;;;;13.41;71.04;100695.05;1628648;88;25651;-86
2021/06/15 02:26:13;;;;;;;11.53;7.17;;;;;;;13.37;71.14;100697.22;1629499;88;25678;-87
2021/06/15 02:28:42;;;;;;;14.18;6.65;;;;;;;13.38;71.14;100699.34;1629449;86;25231;-87
2021/06/15 02:31:19;;;;;;;11.20;6.17;;;;;;;13.42;71.21;100700.14;1628642;88;25288;-87
2021/06/15 02:33:53;;;;;;;10.13;6.50;;;;;;;13.45;71.12;100705.04;1629075;88;27496;-88
2021/06/15 02:36:28;;;;;;;13.25;6.72;;;;;;;13.44;71.15;100702.07;1629342;87;25324;-87
2021/06/15 02:39:15;;;;;;;11.03;6.75;;;;;;;13.46;71.26;100702.72;1629494;86;25310;-88
2021/06/15 02:41:43;;;;;;;11.63;6.85;;;;;;;13.48;71.20;100699.94;1628973;88;25701;-87
2021/06/15 02:44:18;;;;;;;13.03;6.60;;;;;;;13.49;71.19;100701.55;1628477;88;25475;-87
2021/06/15 02:46:43;;;;;;;10.40;6.47;;;;;;;13.50;71.34;100704.02;1629187;88;25809;-85
2021/06/15 02:49:14;;;;;;;12.40;6.90;;;;;;;13.50;71.39;100707.13;1629235;88;25469;-84
2021/06/15 02:52:06;;;;;;;12.53;6.40;;;;;;;13.49;71.44;100706.81;1629446;87;25606;-84
2021/06/15 02:54:41;;;;;;;10.68;7.05;;;;;;;13.51;71.47;100708.77;1662748;82;25279;-85
2021/06/15 02:57:09;;;;;;;12.63;7.03;;;;;;;13.36;71.18;100710.52;1700954;83;25614;-84
2021/06/15 02:59:36;;;;;;;11.40;6.35;;;;;;;13.33;71.51;100712.48;1700929;82;25792;-90
2021/06/15 03:02:03;;;;;;;9.33;6.50;;;;;;;13.38;71.58;100712.47;1701261;83;25639;-87
2021/06/15 03:04:30;;;;;;;10.63;6.58;;;;;;;13.40;71.83;100720.50;1700320;84;25175;-87
2021/06/15 03:06:57;;;;;;;13.22;7.08;;;;;;;13.45;71.99;100716.86;1681819;84;25622;-88
2021/06/15 03:09:24;;;;;;;10.05;6.12;;;;;;;13.51;72.00;100721.91;1701710;83;25421;-88
2021/06/15 03:12:02;;;;;;;10.93;6.28;;;;;;;13.53;72.08;100719.42;1701339;84;25555;-88
2021/06/15 03:14:30;;;;;;;13.90;7.35;;;;;;;13.57;72.14;100718.57;1700106;82;25162;-89
2021/06/15 03:17:00;;;;;;;10.58;6.00;;;;;;;13.60;72.26;100716.90;1682081;83;25731;-89
2021/06/15 03:19:59;;;;;;;9.65;6.03;;;;;;;13.57;72.32;100716.45;1681740;84;25148;-89
2021/06/15 03:22:34;;;;;;;10.45;6.28;;;;;;;13.62;72.25;100717.55;1699812;84;25699;-87
2021/06/15 03:25:03;;;;;;;9.15;6.22;;;;;;;13.68;72.46;100712.09;1678397;84;26908;-87
2021/06/15 03:27:38;;;;;;;10.82;6.60;;;;;;;13.70;72.67;100717.48;1701051;82;25604;-86
2021/06/15 03:30:11;;;;;;;9.88;6.17;;;;;;;13.72;72.63;100716.82;1699162;84;25394;-86
2021/06/15 03:32:54;;;;;;;17.57;6.45;;;;;;;13.77;72.70;100714.95;1701128;83;25131;-86
2021/06/15 03:35:24;;;;;;;12.00;5.83;;;;;;;13.83;72.82;100721.31;1701295;83;25584;-86
2021/06/15 03:37:54;;;;;;;23.07;6.78;;;;;;;13.89;72.96;100719.31;1702076;83;25484;-86
2021/06/15 03:40:22;;;;;;;14.95;6.60;;;;;;;13.92;73.09;100722.89;1701090;83;25395;-86
2021/06/15 03:42:51;;;;;;;17.07;6.97;;;;;;;13.93;73.12;100727.14;1682889;84;25192;-87
2021/06/15 03:45:18;;;;;;;11.53;7.05;;;;;;;13.92;72.85;100718.45;1701351;83;25367;-86
2021/06/15 03:47:47;;;;;;;11.57;7.20;;;;;;;13.95;73.04;100723.34;1701507;84;25909;-86
2021/06/15 03:50:16;;;;;;;9.30;6.53;;;;;;;14.01;72.71;100728.38;1701548;84;25514;-87
2021/06/15 03:52:43;;;;;;;11.85;7.72;;;;;;;14.09;72.58;100728.81;1701860;84;25141;-86
2021/06/15 03:55:12;;;;;;;11.80;6.67;;;;;;;14.17;72.51;100726.11;1701887;82;25181;-86
2021/06/15 03:57:43;;;;;;;11.60;7.33;;;;;;;14.26;72.43;100729.46;1701162;82;25090;-86
2021/06/15 04:00:13;;;;;;;12.43;7.15;;;;;;;14.34;72.36;100728.87;1701115;82;25592;-86
2021/06/15 04:02:44;;;;;;;18.20;7.35;;;;;;;14.43;72.02;100729.59;1700838;82;25686;-86
2021/06/15 04:05:13;;;;;;;11.57;7.07;;;;;;;14.49;71.85;100725.45;1701419;82;25098;-86
2021/06/15 04:07:42;;;;;;;16.65;7.90;;;;;;;14.55;71.72;100727.38;1700906;82;25404;-86
2021/06/15 04:10:10;;;;;;;15.18;7.70;;;;;;;14.64;71.66;100726.28;1683654;84;25488;-86
2021/06/15 04:12:37;;;;;;;12.82;7.12;;;;;;;14.75;71.40;100727.12;1701245;83;25150;-86
2021/06/15 04:15:06;;;;;;;17.80;7.55;;;;;;;14.83;71.11;100722.27;1701307;84;25522;-86
2021/06/15 04:17:36;;;;;;;12.65;6.85;;;;;;;14.92;70.66;100725.10;1700715;82;25250;-86
2021/06/15 04:20:05;;;;;;;12.78;7.78;;;;;;;14.97;70.00;100724.05;1733654;82;25471;-86
2021/06/15 04:22:36;;;;;;;15.75;7.20;;;;;;;15.05;69.92;100727.89;1722761;82;25599;-89
2021/06/15 04:25:05;;;;;;;13.20;7.28;;;;;;;15.12;69.71;100724.03;1701228;84;25369;-86
2021/06/15 04:27:34;;;;;;;11.55;7.50;;;;;;;15.20;69.49;100722.61;1701210;83;25492;-89
2021/06/15 04:30:02;;;;;;;10.85;6.87;;;;;;;15.29;69.00;100727.25;1701147;83;25172;-88
2021/06/15 04:32:47;;;;;;;12.63;7.17;;;;;;;15.37;68.76;100724.50;1683706;84;25186;-89
2021/06/15 04:35:14;;;;;;;12.90;7.22;;;;;;;15.44;68.48;100724.55;1701048;83;25178;-88
2021/06/15 04:37:41;;;;;;;11.12;6.72;;;;;;;15.52;68.21;100723.95;1701131;82;25109;-89
2021/06/15 04:40:18;;;;;;;16.93;7.30;;;;;;;15.61;67.98;100727.77;1701445;82;25607;-88
2021/06/15 04:43:15;;;;;;;13.50;8.10;;;;;;;15.70;67.74;100723.52;1701240;82;25630;-88
2021/06/15 04:45:44;;;;;;;14.80;7.85;;;;;;;15.80;67.21;100723.71;1701286;82;25182;-88
2021/06/15 04:48:27;;;;;;;18.25;7.33;;;;;;;15.92;67.08;100726.94;1701122;82;25361;-87
2021/06/15 04:51:01;;;;;;;12.70;7.92;;;;;;;16.01;66.95;100726.80;1701198;82;25591;-89
2021/06/15 04:53:31;;;;;;;13.83;7.17;;;;;;;16.11;66.30;100732.05;1701103;84;25562;-88
2021/06/15 04:56:00;;;;;;;14.25;6.42;;;;;;;16.20;66.10;100730.07;1701454;84;25102;-88
2021/06/15 04:58:32;;;;;;;10.65;6.47;;;;;;;16.30;65.92;100729.75;1701064;83;25157;-87
2021/06/15 05:01:01;;;;;;;17.32;6.65;;;;;;;16.40;65.46;100731.54;1701189;84;25687;-88
2021/06/15 05:03:29;;;;;;;15.83;7.92;;;;;;;16.49;65.59;100726.91;1701294;83;25084;-88
2021/06/15 05:06:05;;;;;;;12.07;6.45;;;;;;;16.59;65.04;100733.47;1701206;83;25611;-89
2021/06/15 05:08:59;;;;;;;16.80;7.30;;;;;;;16.63;64.03;100734.69;1672702;85;25427;-88
2021/06/15 05:11:28;;;;;;;16.73;6.92;;;;;;;16.68;64.47;100734.63;1672961;84;25667;-87
2021/06/15 05:13:57;;;;;;;15.20;6.92;;;;;;;16.73;63.98;100744.91;1673020;85;25458;-88
2021/06/15 05:16:25;;;;;;;14.90;7.10;;;;;;;16.74;63.91;100749.16;1673501;85;25144;-87
2021/06/15 05:18:53;;;;;;;13.22;7.42;;;;;;;16.78;64.10;100746.48;1655249;85;25523;-87
2021/06/15 05:21:23;;;;;;;12.88;7.03;;;;;;;16.85;63.99;100741.22;1662862;82;25602;-88
2021/06/15 05:24:04;;;;;;;;;;;;;;;16.91;63.92;100744.39;1702675;84;25591;-88
2021/06/15 05:26:31;;;;;;;17.17;7.33;;;;;;;16.98;63.88;100746.56;1701331;84;25552;-88
2021/06/15 05:28:58;;;;;;;14.47;7.50;;;;;;;17.04;63.46;100746.27;1701116;84;25417;-89
2021/06/15 05:31:23;;;;;;;13.43;6.97;;;;;;;17.09;63.24;100749.14;1701454;84;25529;-88
2021/06/15 05:33:49;;;;;;;18.48;8.20;;;;;;;17.19;62.92;100752.23;1701397;84;32899;-89
2021/06/15 05:36:15;;;;;;;14.10;7.28;;;;;;;17.19;62.92;100752.23;1701415;84;31140;-88
2021/06/15 05:38:41;;;;;;;18.02;8.20;;;;;;;17.27;62.98;100748.08;1701321;84;25194;-88
2021/06/15 05:41:07;;;;;;;17.07;8.25;;;;;;;17.39;63.11;100758.87;1701630;83;25174;-91
2021/06/15 05:43:33;;;;;;;17.55;7.92;;;;;;;17.50;62.32;100757.48;1701589;84;25442;-90
2021/06/15 05:45:59;;;;;;;16.02;7.83;;;;;;;17.56;62.65;100751.38;1701118;84;33012;-90
2021/06/15 05:48:24;;;;;;;16.67;8.35;;;;;;;17.68;62.53;100756.91;1701603;84;30979;-90
2021/06/15 05:50:50;;;;;;;16.48;6.83;;;;;;;17.75;62.06;100756.38;1701244;84;34486;-91
2021/06/15 05:53:17;;;;;;;17.07;8.23;;;;;;;17.81;62.01;100748.17;1674928;84;32232;-90
2021/06/15 05:55:43;;;;;;;12.78;7.58;;;;;;;17.92;61.94;100748.41;1668698;86;25444;-89
2021/06/15 05:58:09;;;;;;;19.57;7.67;;;;;;;18.04;61.75;100750.43;1666733;86;25137;-90
2021/06/15 06:00:36;;;;;;;13.72;7.37;;;;;;;18.07;60.91;100753.98;1665283;85;25231;-91
2021/06/15 06:03:02;;;;;;;17.27;7.42;;;;;;;18.12;61.02;100758.16;1665123;86;25173;-90
2021/06/15 06:08:15;;;;;;;21.37;8.38;;;;;;;18.30;60.74;100760.16;1696321;82;25565;-90
2021/06/15 06:10:40;;;;;;;13.80;7.40;;;;;;;18.43;60.49;100765.95;1701478;82;25593;-89
2021/06/15 06:13:07;;;;;;;16.65;7.72;;;;;;;18.52;60.43;100765.50;1701377;82;25698;-91
2021/06/15 06:15:34;;;;;;;16.57;7.05;;;;;;;18.57;59.90;100765.70;1701056;82;25623;-84
2021/06/15 06:18:07;;;;;;;16.12;7.58;;;;;;;18.61;59.51;100765.60;1667450;83;25435;-86
2021/06/15 06:20:33;;;;;;;10.30;6.90;;;;;;;18.65;59.38;100759.37;1668311;82;25690;-88
2021/06/15 06:22:59;;;;;;;15.75;7.42;;;;;;;18.72;59.58;100754.88;1701185;84;25182;-89
2021/06/15 06:25:27;;;;;;;17.65;7.50;;;;;;;18.78;59.07;100754.58;1701424;83;31068;-88
2021/06/15 06:27:54;;;;;;;15.65;8.23;;;;;;;18.82;59.34;100758.42;1701263;83;25155;-89
2021/06/15 06:30:21;;;;;;;15.18;6.97;;;;;;;18.87;59.08;100758.61;1701352;84;25738;-89
2021/06/15 06:32:48;;;;;;;15.03;7.35;;;;;;;18.90;58.47;100754.73;1701226;84;25646;-88
2021/06/15 06:35:14;;;;;;;16.90;7.95;;;;;;;18.93;58.54;100757.77;1701190;84;25489;-89
2021/06/15 06:37:40;;;;;;;16.37;7.50;;;;;;;18.95;58.27;100755.72;1701312;84;31582;-87
2021/06/15 06:40:07;;;;;;;19.17;7.37;;;;;;;18.95;58.27;100755.72;1701060;84;34677;-87
2021/06/15 06:42:36;;;;;;;16.00;7.47;;;;;;;19.00;58.05;100763.05;1701282;83;25175;-87
2021/06/15 06:45:04;;;;;;;14.23;6.72;;;;;;;19.03;58.35;100767.41;1701336;84;25295;-86
2021/06/15 06:47:30;;;;;;;15.95;6.55;;;;;;;19.12;58.45;100765.33;1701373;84;25430;-87
2021/06/15 06:49:56;;;;;;;22.05;7.55;;;;;;;19.26;58.40;100764.74;1701426;83;31210;-88
2021/06/15 06:52:21;;;;;;;17.77;7.28;;;;;;;19.38;57.36;100760.41;1703466;81;34769;-88
2021/06/15 06:54:47;;;;;;;14.60;7.00;;;;;;;19.42;57.12;100762.11;1701352;83;25665;-89
2021/06/15 06:57:13;;;;;;;14.43;6.62;;;;;;;19.49;57.51;100760.23;1701435;84;25309;-88
2021/06/15 06:59:39;;;;;;;14.98;6.65;;;;;;;19.59;56.13;100756.61;1701113;84;32926;-88
2021/06/15 07:02:04;;;;;;;19.45;7.92;;;;;;;19.66;56.58;100755.26;1701490;84;31193;-89
2021/06/15 07:04:31;;;;;;;29.05;6.90;;;;;;;19.74;56.45;100758.45;1701532;83;26073;-88
2021/06/15 07:06:59;;;;;;;24.65;7.60;;;;;;;19.84;55.88;100751.34;1700668;82;25145;-89
2021/06/15 07:09:25;;;;;;;16.07;8.10;;;;;;;19.90;55.67;100753.65;1701537;82;25518;-90
2021/06/15 07:11:50;;;;;;;23.65;7.70;;;;;;;19.96;55.49;100752.77;1697799;82;33299;-88
2021/06/15 07:14:16;;;;;;;24.40;8.00;;;;;;;20.10;55.13;100750.29;1690496;83;31175;-89
2021/06/15 07:16:42;;;;;;;13.75;6.42;;;;;;;20.20;54.76;100747.16;1687838;82;25217;-88
2021/06/15 07:19:09;;;;;;;17.40;6.58;;;;;;;20.30;53.99;100751.97;1694799;84;25177;-90
2021/06/15 07:21:35;;;;;;;15.00;7.45;;;;;;;20.33;54.43;100752.33;1699341;84;25505;-89
2021/06/15 07:24:01;;;;;;;13.75;6.78;;;;;;;20.39;53.83;100759.94;1686266;83;32965;-88
2021/06/15 07:26:27;;;;;;;20.12;6.45;;;;;;;20.42;53.29;100759.48;1683729;84;31036;-88
2021/06/15 07:28:53;;;;;;;16.52;8.08;;;;;;;20.50;53.48;100757.06;1696676;82;25677;-87
2021/06/15 07:31:18;;;;;;;14.90;7.12;;;;;;;20.59;53.19;100759.22;1694344;84;25381;-89
2021/06/15 07:33:44;;;;;;;15.90;6.60;;;;;;;20.64;51.70;100757.77;1689032;84;25764;-89
2021/06/15 07:36:10;;;;;;;14.40;6.60;;;;;;;20.62;52.76;100753.98;1684128;84;33028;-88
2021/06/15 07:38:36;;;;;;;14.95;6.20;;;;;;;20.67;52.60;100748.83;1691866;84;31149;-88
2021/06/15 07:41:02;;;;;;;18.00;6.83;;;;;;;20.71;52.39;100748.69;1695292;84;25165;-88
2021/06/15 07:43:29;;;;;;;14.20;6.80;;;;;;;20.66;51.56;100747.22;1678503;84;25302;-89
2021/06/15 07:45:55;;;;;;;16.73;7.30;;;;;;;20.65;52.34;100744.77;1686414;84;25656;-88
2021/06/15 07:48:21;;;;;;;15.72;6.83;;;;;;;20.71;52.57;100746.55;1673641;83;32885;-88
2021/06/15 07:50:47;;;;;;;12.37;6.83;;;;;;;20.80;52.82;100746.53;1693861;84;31215;-89
2021/06/15 07:53:13;;;;;;;18.07;7.28;;;;;;;20.93;52.84;100748.23;1693588;84;25105;-90
2021/06/15 07:55:38;;;;;;;14.47;7.00;;;;;;;21.05;51.84;100747.75;1683872;83;25219;-88
2021/06/15 07:58:05;;;;;;;12.47;7.15;;;;;;;21.10;51.32;100743.09;1694838;83;25303;-90
2021/06/15 08:00:31;;;;;;;16.70;7.30;;;;;;;21.13;50.32;100747.95;1697145;83;25704;-88
2021/06/15 08:02:57;;;;;;;15.95;7.92;;;;;;;21.14;50.80;100749.57;1700376;84;31706;-88
2021/06/15 08:05:23;;;;;;;12.45;6.83;;;;;;;21.21;51.29;100750.30;1694616;82;25660;-89
2021/06/15 08:07:51;;;;;;;15.10;7.60;;;;;;;21.33;50.36;100751.66;1693506;84;25578;-88
2021/06/15 08:10:19;;;;;;;14.47;5.87;;;;;;;21.48;50.26;100746.78;1693065;84;25639;-88
2021/06/15 08:12:45;;;;;;;16.30;7.22;;;;;;;21.60;50.51;100742.80;1693853;83;25255;-89
2021/06/15 08:15:11;;;;;;;16.07;7.42;;;;;;;21.68;50.13;100745.13;1694674;84;25424;-87
2021/06/15 08:17:37;;;;;;;12.18;6.47;;;;;;;21.68;50.44;100739.28;1694756;84;25154;-88
2021/06/15 08:20:04;;;;;;;14.35;6.53;;;;;;;21.68;49.50;100737.95;1673332;82;25195;-87
2021/06/15 08:22:30;;;;;;;12.28;5.78;;;;;;;21.72;50.09;100734.34;1696010;83;25710;-89
2021/06/15 08:24:56;;;;;;;13.30;5.40;;;;;;;21.77;48.29;100742.45;1688699;84;25191;-89
2021/06/15 08:27:22;;;;;;;8.55;4.70;;;;;;;21.73;47.58;100737.27;1689311;84;25198;-87
2021/06/15 08:29:49;;;;;;;13.58;5.90;;;;;;;21.72;47.67;100733.81;1690649;82;25113;-87
2021/06/15 08:32:15;;;;;;;14.87;6.25;;;;;;;21.71;46.94;100738.02;1693136;84;25449;-87
2021/06/15 08:34:41;;;;;;;16.60;7.35;;;;;;;21.63;48.53;100735.17;1687665;84;25467;-87
2021/06/15 08:37:08;;;;;;;9.83;5.50;;;;;;;21.65;48.98;100731.77;1691638;83;25174;-86
2021/06/15 08:39:33;;;;;;;13.00;5.62;;;;;;;21.70;48.42;100729.23;1694501;84;25681;-90
2021/06/15 08:41:59;;;;;;;10.00;5.42;;;;;;;21.68;48.53;100731.83;1696888;82;25432;-88
2021/06/15 08:44:26;;;;;;;13.13;5.45;;;;;;;21.68;48.10;100732.63;1691767;82;25227;-88
2021/06/15 08:46:52;;;;;;;14.40;5.60;;;;;;;21.72;48.07;100733.81;1685920;83;25645;-88
2021/06/15 08:49:18;;;;;;;11.30;5.45;;;;;;;21.77;47.37;100729.64;1691414;84;25561;-88
2021/06/15 08:51:45;;;;;;;11.90;6.33;;;;;;;21.79;48.17;100731.55;1694444;84;31786;-88
2021/06/15 08:54:18;;;;;;;9.25;5.70;;;;;;;21.86;47.18;100733.59;1687271;82;25662;-88
2021/06/15 08:56:45;;;;;;;11.80;6.00;;;;;;;21.87;47.21;100732.02;1691980;84;25685;-89
2021/06/15 08:59:29;;;;;;;12.88;7.45;;;;;;;21.97;47.46;100727.99;1693554;84;25659;-88
2021/06/15 09:01:59;;;;;;;15.43;7.37;;;;;;;22.03;47.03;100733.71;1687852;84;25480;-87
2021/06/15 09:04:25;;;;;;;;;;;;;;;22.07;47.60;100730.37;1689406;84;25684;-88
2021/06/15 09:06:56;;;;;;;11.38;5.97;;;;;;;22.22;46.98;100731.77;1689532;84;25728;-88
2021/06/15 09:09:22;;;;;;;12.03;5.08;;;;;;;22.23;46.27;100728.86;1698375;82;25618;-87
2021/06/15 09:12:00;;;;;;;10.95;6.30;;;;;;;22.22;46.10;100728.58;1694221;84;25677;-88
2021/06/15 09:14:49;;;;;;;9.93;5.62;;;;;;;22.27;46.54;100724.70;1692728;82;25214;-87
2021/06/15 09:17:29;;;;;;;14.18;6.65;;;;;;;22.37;46.83;100732.92;1672371;83;25801;-87
2021/06/15 09:20:22;;;;;;;11.75;6.45;;;;;;;22.50;46.33;100725.70;1694577;84;25181;-85
2021/06/15 09:23:04;;;;;;;10.03;4.85;;;;;;;22.59;46.24;100738.96;1684091;84;25182;-85
2021/06/15 09:25:32;;;;;;;9.30;5.20;;;;;;;22.59;45.37;100734.97;1691741;84;25774;-88
2021/06/15 09:27:59;;;;;;;9.78;5.08;;;;;;;22.56;44.41;100729.58;1689199;84;25114;-86
2021/06/15 09:30:28;;;;;;;9.63;5.97;;;;;;;22.58;45.83;100727.47;1693251;84;25211;-86
2021/06/15 09:32:54;;;;;;;10.68;5.58;;;;;;;22.62;45.16;100723.83;1695055;82;25125;-88
2021/06/15 09:35:33;;;;;;;13.65;7.10;;;;;;;22.65;45.15;100727.36;1698686;84;25372;-87
2021/06/15 09:38:00;;;;;;;9.70;5.65;;;;;;;22.67;45.18;100734.59;1681599;84;25618;-86
2021/06/15 09:40:32;;;;;;;14.43;5.95;;;;;;;22.68;45.11;100725.55;1686021;84;25365;-86
2021/06/15 09:43:02;;;;;;;10.25;4.92;;;;;;;22.71;44.07;100726.41;1694076;82;25681;-86
2021/06/15 09:45:43;;;;;;;8.25;4.83;;;;;;;22.71;44.14;100721.07;1694255;84;25224;-87
2021/06/15 09:48:36;;;;;;;10.18;5.42;;;;;;;22.76;44.61;100715.05;1694418;84;25690;-87
2021/06/15 09:51:09;;;;;;;10.58;6.08;;;;;;;22.90;44.61;100715.57;1693021;84;25708;-86
2021/06/15 09:53:44;;;;;;;12.58;6.17;;;;;;;23.04;45.23;100704.92;1699139;83;25452;-87
2021/06/15 09:56:13;;;;;;;11.97;5.75;;;;;;;23.15;44.81;100711.25;1680073;84;25731;-86
2021/06/15 09:58:49;;;;;;;10.80;5.80;;;;;;;23.16;45.11;100714.19;1678722;84;25734;-86
2021/06/15 10:01:34;;;;;;;11.45;5.97;;;;;;;23.18;44.51;100702.77;1675235;83;25597;-86
2021/06/15 10:04:19;;;;;;;11.78;6.85;;;;;;;23.18;44.94;100706.77;1688046;84;25597;-88
2021/06/15 10:06:57;;;;;;;12.50;6.42;;;;;;;23.28;44.65;100705.62;1692857;84;25665;-87
2021/06/15 10:09:31;;;;;;;11.88;6.35;;;;;;;23.32;44.34;100704.07;1687172;84;25745;-87
2021/06/15 10:12:04;;;;;;;14.75;6.28;;;;;;;23.24;43.91;100694.63;1692491;84;25585;-81
2021/06/15 10:14:30;;;;;;;13.25;5.28;;;;;;;23.22;44.55;100696.72;1680894;83;25392;-87
2021/06/15 10:16:58;;;;;;;13.22;6.65;;;;;;;23.32;44.71;100684.06;1712400;82;25429;-86
2021/06/15 10:19:25;;;;;;;11.73;6.37;;;;;;;23.45;44.32;100690.42;1684391;84;25167;-87
2021/06/15 10:21:52;;;;;;;9.65;5.92;;;;;;;23.52;44.72;100683.61;1687274;84;25647;-86
2021/06/15 10:24:22;;;;;;;13.08;6.12;;;;;;;23.63;44.72;100680.57;1697738;84;25663;-88
2021/06/15 10:26:46;;;;;;;15.32;6.00;;;;;;;23.67;43.95;100688.36;1699352;83;25179;-87
2021/06/15 10:29:14;;;;;;;14.25;6.22;;;;;;;23.61;44.01;100686.14;1690285;82;25630;-86
2021/06/15 10:31:47;;;;;;;12.63;6.30;;;;;;;23.61;43.60;100685.34;1688500;84;25617;-86
2021/06/15 10:34:13;;;;;;;10.50;5.25;;;;;;;23.64;43.45;100686.18;1689332;82;25710;-86
2021/06/15 10:36:46;;;;;;;12.80;5.62;;;;;;;23.65;42.75;100689.95;1694631;84;25656;-86
2021/06/15 10:39:38;;;;;;;9.30;5.62;;;;;;;23.63;43.58;100682.70;1683671;84;25177;-87
2021/06/15 10:42:16;;;;;;;9.33;5.35;;;;;;;23.66;42.57;100687.55;1695497;82;25740;-88
2021/06/15 10:44:43;;;;;;;15.08;5.80;;;;;;;23.60;41.63;100678.36;1698812;84;25386;-87
2021/06/15 10:47:12;;;;;;;10.75;5.62;;;;;;;23.63;42.48;100669.36;1685915;84;25615;-88
2021/06/15 10:49:58;;;;;;;11.25;5.87;;;;;;;23.68;42.25;100668.61;1693966;84;25223;-87
2021/06/15 10:52:25;;;;;;;12.90;6.03;;;;;;;23.74;43.11;100673.56;1622954;88;25557;-87
2021/06/15 10:54:51;;;;;;;13.32;5.72;;;;;;;23.97;43.92;100663.19;1622481;88;25750;-87
2021/06/15 10:57:28;;;;;;;9.95;5.45;;;;;;;24.15;42.39;100670.38;1622004;87;25612;-86
2021/06/15 11:00:12;;;;;;;10.28;5.40;;;;;;;24.25;42.96;100667.02;1621536;86;25709;-86
2021/06/15 11:02:40;;;;;;;9.85;5.10;;;;;;;24.32;42.82;100659.63;1621441;88;25741;-87
2021/06/15 11:05:36;;;;;;;13.32;5.62;;;;;;;24.47;42.86;100661.72;1622397;87;25334;-88
2021/06/15 11:08:19;;;;;;;10.40;5.97;;;;;;;24.47;42.11;100655.55;1622544;88;25859;-85
2021/06/15 11:11:00;;;;;;;12.45;6.55;;;;;;;24.40;40.67;100660.27;1621599;86;25703;-89
2021/06/15 11:13:53;;;;;;;12.65;6.20;;;;;;;24.27;41.91;100658.77;1622630;88;25684;-88
2021/06/15 11:16:37;;;;;;;13.00;6.12;;;;;;;24.21;41.64;100655.76;1622305;87;25755;-87
2021/06/15 11:19:14;;;;;;;12.43;5.75;;;;;;;24.15;41.34;100656.23;1621208;88;25735;-91
2021/06/15 11:21:54;;;;;;;12.65;5.67;;;;;;;24.12;41.85;100651.38;1621215;88;25669;-88
2021/06/15 11:24:45;;;;;;;9.98;5.47;;;;;;;24.20;42.03;100647.45;1596908;89;25290;-88
2021/06/15 11:27:25;;;;;;;11.55;6.08;;;;;;;24.29;42.05;100644.64;1619654;88;25629;-86
2021/06/15 11:29:56;;;;;;;11.57;5.33;;;;;;;24.26;41.49;100643.27;1687698;82;25586;-87
2021/06/15 11:32:26;;;;;;;15.13;5.87;;;;;;;24.29;41.67;100644.10;1700150;84;25261;-87
2021/06/15 11:35:03;;;;;;;9.93;5.20;;;;;;;24.29;42.23;100636.09;1700141;83;26323;-89
2021/06/15 11:37:40;;;;;;;10.35;6.00;;;;;;;24.42;42.05;100635.41;1699924;84;25646;-86
2021/06/15 11:40:29;;;;;;;11.68;5.53;;;;;;;24.58;42.24;100623.86;1700058;84;25667;-87